メインページ
METAR-TAF:

METAR-TAF

空港 :

エルサルバドル, エルサルバドル

エルサルバドル国際空港

緯度: 13-26N, 経度: 089-03W, 海抜: 25m

現時点の気象観測

当レポートは37分前の05:50(UTC)に作成
北/北東の風 8kt
気温 24°C
湿度 50%
気圧 1013 hPa
視程10km以上
1,500メートル以下は雲なし、積乱雲なし

METAR: MSLP 140550Z 02008KT CAVOK 24/13 Q1012 A2991 NOSIG

時間: 00:27 (06:27 UTC)

予報

当レポートは3時間2分前の03:25(UTC)に作成
予報は14日の 06時(UTC)から 15日の 06時(UTC)まで有効
北/北東の風 12kt
視程10km以上
1,500メートル以下は雲なし、積乱雲なし
14日の 20時(UTC)から 15日の 00時(UTC)まで一時的に
南/南西の風 8kt

TAF: MSLP 140325Z 1406/1506 02012KT CAVOK TX32/1418Z TN23/1412Z TEMPO 1420/1500 21008KT

4,000以上の空港の気象観測と天気予報(METAR報とTAF報)

利用可能な観測所は地図上に黄色い丸と赤い丸で示す。

丸の上にカーソルを重ねると観測所名を参照できる。

次にクリックすると気象観測と天気予報を参照できる。

マップの切り替え:黒色「×」印の緑ボタンをクリックして拡大、「-」印の緑ボタンをクリックして縮小、緑色の三角印をクリックして隣りの地図に切り替え


METAR-TAF: